Time;durP1;ratioP1;P1;durP2;ratioP2;P2;SDS_P1;SDS_P2;PMS_P1;PMS_P2;Temp;Humidity;BMP_temperature;BMP_pressure;BME280_temperature;BME280_humidity;BME280_pressure;Samples;Min_cycle;Max_cycle;Signal;HPM_P1;HPM_P2
2023/08/08 00:00:15;;;;;;;3.70;1.90;;;;;;;11.78;100.00;100710.44;676592;29;1526;-64
2023/08/08 00:00:35;;;;;;;3.60;1.92;;;;;;;11.80;100.00;100711.31;678949;29;802;-66
2023/08/08 00:00:56;;;;;;;4.30;1.97;;;;;;;11.80;100.00;100708.69;677434;29;779;-64
2023/08/08 00:01:16;;;;;;;3.72;1.98;;;;;;;11.80;100.00;100708.69;678039;29;2157;-64
2023/08/08 00:01:37;;;;;;;3.97;2.10;;;;;;;11.79;100.00;100712.16;677884;29;4512;-64
2023/08/08 00:01:57;;;;;;;4.90;2.00;;;;;;;11.77;100.00;100708.72;677196;29;1017;-64
2023/08/08 00:02:17;;;;;;;4.80;2.10;;;;;;;11.76;100.00;100699.97;678775;29;1876;-64
2023/08/08 00:02:39;;;;;;;3.97;1.88;;;;;;;11.76;100.00;100697.34;678974;29;837;-64
2023/08/08 00:02:59;;;;;;;4.43;2.00;;;;;;;11.74;100.00;100701.75;680707;29;901;-64
2023/08/08 00:03:20;;;;;;;3.47;2.00;;;;;;;11.75;100.00;100702.59;678495;29;2496;-64
2023/08/08 00:03:40;;;;;;;4.50;2.00;;;;;;;11.72;100.00;100697.41;679630;29;987;-64
2023/08/08 00:04:00;;;;;;;4.60;1.95;;;;;;;11.68;100.00;100700.94;677005;29;928;-64
2023/08/08 00:04:21;;;;;;;4.77;2.10;;;;;;;11.70;100.00;100700.03;676678;29;2409;-64
2023/08/08 00:04:41;;;;;;;3.90;2.00;;;;;;;11.73;100.00;100699.16;678173;28;4581;-64
2023/08/08 00:05:02;;;;;;;4.07;2.05;;;;;;;11.73;100.00;100697.38;678734;29;1385;-64
2023/08/08 00:05:22;;;;;;;3.63;2.10;;;;;;;11.73;100.00;100701.75;678281;29;2190;-64
2023/08/08 00:05:42;;;;;;;3.78;2.00;;;;;;;11.72;100.00;100700.03;676918;29;1141;-64
2023/08/08 00:06:03;;;;;;;3.63;2.00;;;;;;;11.72;100.00;100700.03;674408;29;905;-64
2023/08/08 00:06:23;;;;;;;4.05;2.10;;;;;;;11.71;100.00;100699.16;673943;29;1700;-64
2023/08/08 00:06:44;;;;;;;4.07;2.00;;;;;;;11.70;100.00;100694.81;675673;29;2115;-64
2023/08/08 00:07:04;;;;;;;4.30;2.08;;;;;;;11.72;100.00;100700.88;675445;29;2497;-64
2023/08/08 00:07:25;;;;;;;4.30;2.20;;;;;;;11.72;100.00;100692.16;672219;29;1892;-64
2023/08/08 00:07:45;;;;;;;5.15;2.17;;;;;;;11.72;100.00;100694.78;673560;29;4397;-64
2023/08/08 00:08:06;;;;;;;4.97;2.00;;;;;;;11.68;100.00;100698.31;676118;29;910;-64
2023/08/08 00:08:26;;;;;;;4.25;1.90;;;;;;;11.67;100.00;100701.81;674906;29;2216;-64
2023/08/08 00:08:47;;;;;;;4.68;2.20;;;;;;;11.66;100.00;100698.31;676489;29;858;-64
2023/08/08 00:09:07;;;;;;;4.30;2.20;;;;;;;11.65;100.00;100700.97;678722;29;1577;-64
2023/08/08 00:09:27;;;;;;;4.07;2.03;;;;;;;11.66;100.00;100700.06;676888;29;1707;-64
2023/08/08 00:09:48;;;;;;;4.10;2.05;;;;;;;11.67;100.00;100701.81;677946;29;916;-64
2023/08/08 00:10:09;;;;;;;3.60;2.00;;;;;;;11.66;100.00;100698.31;677840;29;861;-64
2023/08/08 00:10:31;;;;;;;3.88;2.10;;;;;;;11.68;100.00;100698.31;677238;29;1802;-64
2023/08/08 00:10:52;;;;;;;5.97;2.10;;;;;;;11.67;100.00;100696.56;678948;29;4695;-64
2023/08/08 00:11:12;;;;;;;5.13;2.03;;;;;;;11.65;100.00;100700.97;679574;29;1289;-64
2023/08/08 00:11:33;;;;;;;4.07;2.00;;;;;;;11.64;100.00;100693.97;679200;29;830;-64
2023/08/08 00:11:53;;;;;;;3.90;2.00;;;;;;;11.64;100.00;100691.38;679506;29;794;-64
2023/08/08 00:12:14;;;;;;;3.95;2.17;;;;;;;11.65;100.00;100695.72;677854;29;5132;-64
2023/08/08 00:12:34;;;;;;;4.10;2.23;;;;;;;11.65;100.00;100695.72;678783;29;1067;-64
2023/08/08 00:12:55;;;;;;;3.47;2.10;;;;;;;11.63;100.00;100694.84;678954;29;1020;-64
2023/08/08 00:13:15;;;;;;;4.70;2.13;;;;;;;11.62;100.00;100696.63;676933;29;1734;-64
2023/08/08 00:13:36;;;;;;;4.82;2.03;;;;;;;11.60;100.00;100693.13;677617;28;4575;-64
2023/08/08 00:13:57;;;;;;;3.90;2.10;;;;;;;11.58;100.00;100693.13;677504;29;921;-64
2023/08/08 00:14:17;;;;;;;4.38;2.03;;;;;;;11.55;100.00;100693.19;676821;29;2424;-64
2023/08/08 00:14:38;;;;;;;4.45;2.08;;;;;;;11.53;100.00;100694.97;677007;29;1362;-64
2023/08/08 00:14:58;;;;;;;3.50;1.90;;;;;;;11.53;100.00;100691.44;676364;29;1365;-64
2023/08/08 00:15:18;;;;;;;4.00;2.00;;;;;;;11.53;100.00;100694.06;674038;29;2199;-64
2023/08/08 00:15:39;;;;;;;4.03;1.83;;;;;;;11.54;100.00;100690.56;676618;29;838;-62
2023/08/08 00:15:59;;;;;;;3.75;2.00;;;;;;;11.53;100.00;100692.34;674546;29;1298;-63
2023/08/08 00:16:20;;;;;;;4.23;2.10;;;;;;;11.53;100.00;100687.09;674683;29;1922;-63
2023/08/08 00:16:41;;;;;;;3.88;2.10;;;;;;;11.53;100.00;100694.97;675660;29;4520;-63
2023/08/08 00:17:01;;;;;;;4.05;2.00;;;;;;;11.52;100.00;100690.59;679099;29;1063;-63
2023/08/08 00:17:22;;;;;;;5.57;2.00;;;;;;;11.53;100.00;100694.97;677498;29;2240;-63
2023/08/08 00:17:42;;;;;;;4.75;1.90;;;;;;;11.55;100.00;100689.69;678916;29;909;-63
2023/08/08 00:18:03;;;;;;;3.50;1.90;;;;;;;11.55;100.00;100687.09;677538;29;916;-64
2023/08/08 00:18:23;;;;;;;3.85;1.98;;;;;;;11.54;100.00;100687.97;677614;29;1440;-63
2023/08/08 00:18:44;;;;;;;4.00;2.15;;;;;;;11.51;100.00;100688.84;678923;29;1305;-64
2023/08/08 00:19:04;;;;;;;4.20;2.17;;;;;;;11.49;100.00;100681.88;678457;29;850;-63
2023/08/08 00:19:25;;;;;;;4.40;2.10;;;;;;;11.49;100.00;100693.25;676499;29;2690;-64
2023/08/08 00:19:45;;;;;;;4.70;2.27;;;;;;;11.49;100.00;100690.63;678201;28;4552;-64
2023/08/08 00:20:07;;;;;;;4.70;2.33;;;;;;;11.50;100.00;100691.47;680202;29;818;-64
2023/08/08 00:20:27;;;;;;;4.63;2.20;;;;;;;11.47;100.00;100692.38;677853;29;1817;-66
2023/08/08 00:20:48;;;;;;;4.70;2.30;;;;;;;11.47;100.00;100694.13;679156;29;866;-64
2023/08/08 00:21:08;;;;;;;4.63;2.20;;;;;;;11.45;100.00;100688.91;681035;29;1418;-64
2023/08/08 00:21:29;;;;;;;4.30;2.38;;;;;;;11.44;100.00;100688.91;679238;29;1194;-63
2023/08/08 00:21:49;;;;;;;4.47;2.27;;;;;;;11.45;100.00;100685.41;679798;29;917;-64
2023/08/08 00:22:10;;;;;;;4.00;2.10;;;;;;;11.45;100.00;100686.28;678587;29;1275;-63
2023/08/08 00:22:30;;;;;;;5.00;2.20;;;;;;;11.45;100.00;100688.03;677355;29;1588;-63
2023/08/08 00:22:50;;;;;;;4.57;2.25;;;;;;;11.45;100.00;100686.28;676403;29;4411;-63
2023/08/08 00:23:11;;;;;;;3.83;2.10;;;;;;;11.45;100.00;100688.91;678913;29;1269;-64
2023/08/08 00:23:31;;;;;;;3.97;2.17;;;;;;;11.43;100.00;100687.19;676833;29;1065;-64
2023/08/08 00:23:51;;;;;;;4.05;2.20;;;;;;;11.41;100.00;100685.44;678670;29;1325;-63
2023/08/08 00:24:12;;;;;;;4.50;2.27;;;;;;;11.42;100.00;100681.06;676915;29;838;-63
2023/08/08 00:24:32;;;;;;;4.70;2.22;;;;;;;11.41;100.00;100682.81;676940;29;2277;-63
2023/08/08 00:24:52;;;;;;;3.80;2.00;;;;;;;11.41;100.00;100682.81;677316;29;770;-63
2023/08/08 00:25:13;;;;;;;3.90;1.80;;;;;;;11.42;100.00;100681.06;678585;29;1242;-63
2023/08/08 00:25:33;;;;;;;3.67;1.90;;;;;;;11.41;100.00;100682.81;679930;28;2307;-63
2023/08/08 00:25:54;;;;;;;4.50;2.20;;;;;;;11.42;100.00;100691.53;680767;29;4282;-63
2023/08/08 00:26:16;;;;;;;4.97;2.13;;;;;;;11.40;100.00;100682.84;679897;28;1821;-64
2023/08/08 00:26:37;;;;;;;3.88;1.90;;;;;;;11.37;100.00;100683.72;681012;29;774;-63
2023/08/08 00:26:57;;;;;;;7.40;2.25;;;;;;;11.36;100.00;100679.34;680630;29;886;-64
2023/08/08 00:27:17;;;;;;;5.57;2.03;;;;;;;11.37;100.00;100685.47;678894;28;1859;-63
2023/08/08 00:27:42;;;;;;;3.65;1.85;;;;;;;11.36;100.00;100675.88;680922;29;886;-63
2023/08/08 00:28:02;;;;;;;3.72;2.00;;;;;;;11.34;100.00;100677.63;679763;29;1004;-64
2023/08/08 00:28:23;;;;;;;4.10;1.92;;;;;;;11.34;100.00;100685.47;680118;28;1816;-63
2023/08/08 00:28:43;;;;;;;4.03;1.83;;;;;;;11.32;100.00;100679.41;679398;28;4611;-63
2023/08/08 00:29:04;;;;;;;3.65;1.90;;;;;;;11.32;100.00;100682.03;680451;28;991;-64
2023/08/08 00:29:24;;;;;;;3.87;1.90;;;;;;;11.31;100.00;100682.91;677146;29;1750;-63
2023/08/08 00:29:45;;;;;;;3.78;2.00;;;;;;;11.31;100.00;100685.50;677965;29;849;-64
2023/08/08 00:30:06;;;;;;;3.75;1.90;;;;;;;11.30;100.00;100679.41;678189;29;913;-63
2023/08/08 00:30:27;;;;;;;5.43;2.33;;;;;;;11.30;100.00;100682.03;678261;29;1050;-63
2023/08/08 00:30:47;;;;;;;4.83;2.30;;;;;;;11.32;100.00;100687.25;680848;28;1361;-63
2023/08/08 00:31:07;;;;;;;3.97;2.30;;;;;;;11.31;100.00;100685.50;680827;29;932;-64
2023/08/08 00:31:28;;;;;;;4.23;2.40;;;;;;;11.31;100.00;100685.50;679892;28;1703;-64
2023/08/08 00:31:48;;;;;;;4.43;2.10;;;;;;;11.30;100.00;100679.41;677626;28;4355;-63
2023/08/08 00:32:09;;;;;;;4.27;2.07;;;;;;;11.31;100.00;100689.03;678170;29;766;-63
2023/08/08 00:32:29;;;;;;;4.72;1.95;;;;;;;11.31;100.00;100682.91;677684;29;1475;-64
2023/08/08 00:32:49;;;;;;;4.00;2.10;;;;;;;11.31;100.00;100681.16;678333;29;850;-64
2023/08/08 00:33:10;;;;;;;4.13;2.10;;;;;;;11.32;100.00;100684.63;677691;29;718;-64
2023/08/08 00:33:30;;;;;;;5.13;2.60;;;;;;;11.30;100.00;100678.53;675984;29;1997;-63
2023/08/08 00:33:51;;;;;;;5.60;2.50;;;;;;;11.28;100.00;100682.94;681681;29;889;-63
2023/08/08 00:34:11;;;;;;;5.68;2.40;;;;;;;11.26;100.00;100680.31;680406;28;1223;-63
2023/08/08 00:34:31;;;;;;;5.53;2.10;;;;;;;11.28;100.00;100682.94;677088;28;2294;-64
2023/08/08 00:34:52;;;;;;;5.10;2.10;;;;;;;11.27;100.00;100681.19;678851;29;4476;-63
2023/08/08 00:35:12;;;;;;;4.47;2.15;;;;;;;11.28;100.00;100688.16;678574;29;1248;-63
2023/08/08 00:35:33;;;;;;;3.60;2.07;;;;;;;11.27;100.00;100682.06;677948;29;2193;-63
2023/08/08 00:35:53;;;;;;;4.33;2.27;;;;;;;11.27;100.00;100681.19;679368;29;1235;-63
2023/08/08 00:36:14;;;;;;;5.43;2.40;;;;;;;11.24;100.00;100682.06;678724;29;1297;-63
2023/08/08 00:36:34;;;;;;;5.38;2.10;;;;;;;11.23;100.00;100685.59;677756;29;2011;-63
2023/08/08 00:36:54;;;;;;;4.70;2.00;;;;;;;11.20;100.00;100681.25;677562;29;937;-63
2023/08/08 00:37:15;;;;;;;4.53;2.00;;;;;;;11.19;100.00;100682.13;679344;29;1991;-63
2023/08/08 00:37:36;;;;;;;4.95;2.10;;;;;;;11.17;100.00;100683.88;679133;29;4807;-64
2023/08/08 00:37:56;;;;;;;4.20;2.20;;;;;;;11.15;100.00;100683.00;678864;29;1563;-63
2023/08/08 00:38:18;;;;;;;4.10;2.20;;;;;;;11.16;100.00;100679.53;678047;29;2588;-63
2023/08/08 00:38:38;;;;;;;4.03;2.05;;;;;;;11.20;100.00;100682.97;679781;29;2428;-63
2023/08/08 00:38:59;;;;;;;6.27;2.10;;;;;;;11.20;100.00;100685.59;678335;28;1398;-63
2023/08/08 00:39:19;;;;;;;8.73;2.33;;;;;;;11.21;100.00;100684.72;675299;29;1428;-66
2023/08/08 00:39:45;;;;;;;9.33;2.50;;;;;;;11.19;100.00;100687.34;676768;29;1110;-63
2023/08/08 00:40:06;;;;;;;4.45;2.00;;;;;;;11.18;100.00;100690.84;673855;29;969;-62
2023/08/08 00:40:27;;;;;;;4.25;2.00;;;;;;;11.18;100.00;100684.75;670300;29;2716;-62
2023/08/08 00:40:47;;;;;;;4.50;2.10;;;;;;;11.16;100.00;100690.00;671106;29;4491;-63
2023/08/08 00:41:07;;;;;;;3.83;2.20;;;;;;;11.15;100.00;100688.25;674044;29;1693;-63
2023/08/08 00:41:28;;;;;;;5.10;2.20;;;;;;;11.14;100.00;100685.63;670960;29;1959;-63
2023/08/08 00:41:48;;;;;;;4.83;2.40;;;;;;;11.16;100.00;100684.75;674534;29;1238;-64
2023/08/08 00:42:09;;;;;;;4.30;2.47;;;;;;;11.16;100.00;100689.09;675422;29;1568;-63
2023/08/08 00:42:29;;;;;;;4.37;2.20;;;;;;;11.16;100.00;100689.09;676102;29;1766;-62
2023/08/08 00:42:50;;;;;;;3.90;1.90;;;;;;;11.16;100.00;100690.00;678237;29;1169;-64
2023/08/08 00:43:10;;;;;;;4.00;2.00;;;;;;;11.15;100.00;100687.38;675185;29;799;-65
2023/08/08 00:43:31;;;;;;;4.73;2.30;;;;;;;11.14;100.00;100686.50;671778;29;2379;-62
2023/08/08 00:43:51;;;;;;;4.50;2.30;;;;;;;11.14;100.00;100685.63;675036;29;4408;-63
2023/08/08 00:44:11;;;;;;;5.10;2.20;;;;;;;11.14;100.00;100685.63;675748;29;826;-63
2023/08/08 00:44:32;;;;;;;4.95;2.20;;;;;;;11.14;100.00;100686.50;674190;29;1830;-63
2023/08/08 00:44:52;;;;;;;5.40;2.10;;;;;;;11.12;100.00;100688.28;677369;29;898;-62
2023/08/08 00:45:13;;;;;;;4.00;2.10;;;;;;;11.11;100.00;100685.66;679260;29;831;-62
2023/08/08 00:45:34;;;;;;;4.22;2.05;;;;;;;11.11;100.00;100683.91;678763;28;2333;-62
2023/08/08 00:45:54;;;;;;;4.95;2.08;;;;;;;11.11;100.00;100686.53;679541;28;2085;-65
2023/08/08 00:46:16;;;;;;;4.47;2.17;;;;;;;11.10;100.00;100684.78;680358;28;1771;-64
2023/08/08 00:46:36;;;;;;;4.47;2.20;;;;;;;11.08;100.00;100681.31;678951;29;4361;-63
2023/08/08 00:46:57;;;;;;;3.90;2.10;;;;;;;11.08;100.00;100676.09;679518;29;800;-63
2023/08/08 00:47:17;;;;;;;3.97;2.20;;;;;;;11.09;100.00;100680.44;675691;29;1778;-62
2023/08/08 00:47:38;;;;;;;4.35;2.08;;;;;;;11.08;100.00;100679.56;677474;29;994;-65
2023/08/08 00:47:58;;;;;;;3.40;2.00;;;;;;;11.10;100.00;100679.53;673772;29;1349;-63
2023/08/08 00:48:19;;;;;;;4.87;2.20;;;;;;;11.10;100.00;100679.53;673046;29;1756;-63
2023/08/08 00:48:39;;;;;;;3.80;2.25;;;;;;;11.09;100.00;100683.06;675691;29;1237;-64
2023/08/08 00:49:00;;;;;;;5.13;2.17;;;;;;;11.08;100.00;100681.31;676405;29;1308;-63
2023/08/08 00:49:23;;;;;;;5.57;2.30;;;;;;;11.07;100.00;100674.34;677229;29;2922;-63
2023/08/08 00:49:46;;;;;;;4.63;2.35;;;;;;;11.07;100.00;100674.34;678004;29;4416;-63
2023/08/08 00:50:08;;;;;;;4.50;2.35;;;;;;;11.05;100.00;100676.13;679569;29;965;-63
2023/08/08 00:50:28;;;;;;;4.75;2.10;;;;;;;11.07;100.00;100674.34;677350;29;2588;-64
2023/08/08 00:50:52;;;;;;;5.95;2.22;;;;;;;11.04;100.00;100674.38;678053;29;2067;-64
2023/08/08 00:51:14;;;;;;;4.95;2.15;;;;;;;11.05;100.00;100676.13;677516;29;1284;-64
2023/08/08 00:51:34;;;;;;;4.43;2.20;;;;;;;11.05;100.00;100671.75;672423;29;1893;-63
2023/08/08 00:51:55;;;;;;;4.73;2.00;;;;;;;11.05;100.00;100673.50;672620;29;946;-63
2023/08/08 00:52:15;;;;;;;4.63;2.10;;;;;;;11.04;100.00;100679.59;673777;29;1036;-63
2023/08/08 00:52:37;;;;;;;4.70;2.10;;;;;;;11.02;100.00;100670.88;676550;29;4401;-63
2023/08/08 00:52:58;;;;;;;4.10;2.03;;;;;;;11.04;100.00;100674.38;679169;29;1534;-64
2023/08/08 00:53:19;;;;;;;3.80;2.00;;;;;;;11.11;100.00;100670.81;675514;29;1773;-63
2023/08/08 00:53:40;;;;;;;3.70;2.15;;;;;;;11.17;100.00;100673.41;678828;29;1982;-63
2023/08/08 00:54:01;;;;;;;5.07;2.17;;;;;;;11.17;100.00;100676.03;673618;29;1636;-63
2023/08/08 00:54:21;;;;;;;6.05;2.10;;;;;;;11.16;100.00;100682.13;673112;29;2755;-63
2023/08/08 00:54:42;;;;;;;3.88;2.00;;;;;;;11.13;100.00;100676.03;673747;29;1617;-63
2023/08/08 00:55:03;;;;;;;3.87;2.00;;;;;;;11.08;100.00;100670.84;673859;29;926;-63
2023/08/08 00:55:23;;;;;;;4.85;2.03;;;;;;;11.12;100.00;100675.19;672898;29;2385;-63
2023/08/08 00:55:44;;;;;;;4.13;2.10;;;;;;;11.12;100.00;100672.56;676464;29;4402;-63
2023/08/08 00:56:04;;;;;;;3.90;2.10;;;;;;;11.13;100.00;100673.44;681956;29;759;-64
2023/08/08 00:56:25;;;;;;;3.75;1.90;;;;;;;11.12;100.00;100677.81;678012;29;2412;-63
2023/08/08 00:56:46;;;;;;;4.15;2.00;;;;;;;11.10;100.00;100670.84;677893;29;1402;-63
2023/08/08 00:57:06;;;;;;;4.10;2.00;;;;;;;11.09;100.00;100672.59;679245;29;1618;-63
2023/08/08 00:57:27;;;;;;;5.50;2.10;;;;;;;11.06;100.00;100675.22;677673;29;1944;-63
2023/08/08 00:57:47;;;;;;;3.70;2.08;;;;;;;11.04;100.00;100666.53;675157;29;1298;-63
2023/08/08 00:58:08;;;;;;;5.73;2.10;;;;;;;11.04;100.00;100674.38;674969;29;1541;-63
2023/08/08 00:58:28;;;;;;;5.13;2.10;;;;;;;11.02;100.00;100676.13;674500;29;1571;-63
2023/08/08 00:58:50;;;;;;;3.87;2.00;;;;;;;11.00;100.00;100675.28;675023;29;4430;-63
2023/08/08 00:59:13;;;;;;;4.00;2.00;;;;;;;11.01;100.00;100674.41;675754;29;976;-63
2023/08/08 00:59:34;;;;;;;3.67;2.00;;;;;;;11.00;100.00;100675.28;677875;29;1879;-63
2023/08/08 00:59:56;;;;;;;3.95;2.10;;;;;;;10.96;100.00;100670.94;677491;29;910;-63
2023/08/08 01:00:17;;;;;;;4.32;2.03;;;;;;;10.95;100.00;100680.53;672451;29;1360;-63
2023/08/08 01:00:37;;;;;;;3.78;2.00;;;;;;;10.96;100.00;100673.56;674436;29;848;-63
2023/08/08 01:00:59;;;;;;;4.32;2.30;;;;;;;10.96;100.00;100674.41;676229;29;1309;-63
2023/08/08 01:01:20;;;;;;;5.43;2.20;;;;;;;10.95;100.00;100680.53;672901;29;1020;-63
2023/08/08 01:01:40;;;;;;;5.57;2.20;;;;;;;10.92;100.00;100675.31;673535;29;4404;-63
2023/08/08 01:02:01;;;;;;;5.05;2.20;;;;;;;10.93;100.00;100678.81;674269;29;882;-63
2023/08/08 01:02:21;;;;;;;4.63;2.00;;;;;;;10.93;100.00;100676.19;675245;29;2934;-63
2023/08/08 01:02:41;;;;;;;4.50;2.20;;;;;;;10.92;100.00;100675.31;676067;29;1273;-63
2023/08/08 01:03:02;;;;;;;5.30;2.57;;;;;;;10.92;100.00;100677.06;671790;29;1304;-64
2023/08/08 01:03:23;;;;;;;4.50;2.00;;;;;;;10.92;100.00;100677.06;673123;29;1918;-63
2023/08/08 01:03:43;;;;;;;3.75;2.00;;;;;;;10.90;100.00;100675.31;674069;29;921;-64
2023/08/08 01:04:06;;;;;;;3.63;1.80;;;;;;;10.89;100.00;100675.31;673847;29;933;-62
2023/08/08 01:04:27;;;;;;;4.18;2.08;;;;;;;10.89;100.00;100672.72;675043;29;1802;-62
2023/08/08 01:04:48;;;;;;;4.32;2.00;;;;;;;10.89;100.00;100670.09;679726;28;4409;-64
2023/08/08 01:05:09;;;;;;;4.57;2.23;;;;;;;10.90;100.00;100675.31;679101;29;1411;-63
2023/08/08 01:05:35;;;;;;;5.75;2.30;;;;;;;10.90;100.00;100677.94;675214;29;2535;-63
2023/08/08 01:06:31;;;;;;;4.18;2.22;;;;;;;10.87;100.00;100667.50;676736;29;1347;-63
2023/08/08 01:07:18;;;;;;;4.30;2.10;;;;;;;10.85;100.00;100674.47;676395;29;1144;-63
2023/08/08 01:07:49;;;;;;;4.20;2.03;;;;;;;10.84;100.00;100677.09;677460;28;4676;-62
2023/08/08 01:08:11;;;;;;;3.70;1.95;;;;;;;10.84;100.00;100677.97;679033;29;1294;-62
2023/08/08 01:08:45;;;;;;;4.95;2.00;;;;;;;10.84;100.00;100672.75;677662;29;2346;-63
2023/08/08 01:09:52;;;;;;;4.50;2.08;;;;;;;10.81;100.00;100679.72;678358;29;933;-63
2023/08/08 01:10:28;;;;;;;6.30;2.25;;;;;;;10.79;100.00;100673.66;682128;28;921;-64
2023/08/08 01:10:49;;;;;;;4.60;2.50;;;;;;;10.82;100.00;100679.72;678181;29;4682;-63
2023/08/08 01:11:10;;;;;;;4.97;2.25;;;;;;;10.84;100.00;100682.31;679382;29;834;-63
2023/08/08 01:11:34;;;;;;;3.60;2.00;;;;;;;10.84;100.00;100684.94;676475;29;1443;-63
2023/08/08 01:11:55;;;;;;;3.95;2.17;;;;;;;10.82;100.00;100682.34;678568;29;815;-63
2023/08/08 01:12:16;;;;;;;4.13;2.40;;;;;;;10.82;100.00;100684.94;676427;29;5414;-63
2023/08/08 01:12:41;;;;;;;4.00;2.25;;;;;;;10.82;100.00;100684.94;675277;29;863;-63
2023/08/08 01:13:11;;;;;;;4.75;2.13;;;;;;;10.82;100.00;100684.94;676544;29;1395;-65
2023/08/08 01:13:33;;;;;;;4.78;2.15;;;;;;;10.82;100.00;100684.09;672639;29;2757;-63
2023/08/08 01:13:54;;;;;;;4.57;2.00;;;;;;;10.82;100.00;100674.50;673611;29;4357;-63
2023/08/08 01:14:18;;;;;;;4.85;2.08;;;;;;;10.83;100.00;100684.06;676792;29;881;-63
2023/08/08 01:14:42;;;;;;;5.45;2.50;;;;;;;10.84;100.00;100680.59;676249;29;822;-63
2023/08/08 01:15:06;;;;;;;4.45;2.00;;;;;;;10.87;100.00;100680.56;676426;29;1322;-63
2023/08/08 01:15:27;;;;;;;4.50;2.00;;;;;;;10.89;100.00;100675.31;677302;29;1876;-63
2023/08/08 01:15:49;;;;;;;4.75;2.00;;;;;;;10.87;100.00;100683.19;677747;29;973;-64
2023/08/08 01:16:10;;;;;;;3.42;2.05;;;;;;;10.85;100.00;100679.69;680879;29;1286;-64
2023/08/08 01:16:31;;;;;;;4.85;2.30;;;;;;;10.85;100.00;100679.69;679857;28;1791;-64
2023/08/08 01:16:57;;;;;;;4.85;2.30;;;;;;;10.83;100.00;100684.06;680320;28;4276;-64
2023/08/08 01:17:21;;;;;;;3.95;2.08;;;;;;;10.84;100.00;100677.09;678130;29;2500;-63
2023/08/08 01:17:44;;;;;;;4.65;2.15;;;;;;;10.84;100.00;100682.31;678687;29;854;-64
2023/08/08 01:18:05;;;;;;;4.28;2.20;;;;;;;10.85;100.00;100684.06;679055;29;2108;-64
2023/08/08 01:18:27;;;;;;;4.57;2.10;;;;;;;10.86;100.00;100675.34;675382;29;1698;-64
2023/08/08 01:18:49;;;;;;;5.80;2.25;;;;;;;10.85;100.00;100674.47;674728;29;984;-64
2023/08/08 01:19:14;;;;;;;4.07;2.00;;;;;;;10.82;100.00;100682.34;675595;29;1187;-64
2023/08/08 01:19:35;;;;;;;4.20;2.10;;;;;;;10.85;100.00;100684.06;672384;29;4462;-64
2023/08/08 01:19:55;;;;;;;4.35;2.10;;;;;;;10.86;100.00;100675.34;672149;29;3612;-64
2023/08/08 01:20:18;;;;;;;4.07;2.10;;;;;;;10.86;100.00;100678.81;672905;29;1933;-67
2023/08/08 01:20:39;;;;;;;4.43;2.22;;;;;;;10.86;100.00;100677.97;674141;29;1407;-64
2023/08/08 01:21:00;;;;;;;4.57;2.30;;;;;;;10.85;100.00;100679.69;673251;29;875;-63
2023/08/08 01:21:20;;;;;;;5.90;2.63;;;;;;;10.86;100.00;100680.59;675263;29;1091;-64
2023/08/08 01:21:43;;;;;;;4.65;2.17;;;;;;;10.86;100.00;100677.97;679003;29;881;-63
2023/08/08 01:22:09;;;;;;;5.20;2.33;;;;;;;10.86;100.00;100676.22;675813;29;1242;-64
2023/08/08 01:22:35;;;;;;;5.25;2.60;;;;;;;10.86;100.00;100676.22;675385;29;2042;-64
2023/08/08 01:23:03;;;;;;;5.40;2.25;;;;;;;10.88;100.00;100678.81;675441;29;6491;-64
2023/08/08 01:24:00;;;;;;;4.85;2.33;;;;;;;10.86;100.00;100676.22;674443;29;1038;-65
2023/08/08 01:24:23;;;;;;;4.72;2.22;;;;;;;10.87;100.00;100675.34;677770;29;2404;-64
2023/08/08 01:24:44;;;;;;;5.10;2.33;;;;;;;10.88;100.00;100674.47;677568;29;969;-64
2023/08/08 01:25:06;;;;;;;4.68;2.30;;;;;;;10.89;100.00;100681.41;677834;29;1358;-64
2023/08/08 01:25:26;;;;;;;3.83;2.00;;;;;;;10.92;100.00;100679.69;675657;29;2542;-64
2023/08/08 01:25:48;;;;;;;3.75;2.08;;;;;;;10.92;100.00;100679.69;678123;28;4415;-64
2023/08/08 01:26:10;;;;;;;5.40;2.40;;;;;;;10.92;100.00;100679.69;674937;29;1918;-64
2023/08/08 01:26:32;;;;;;;5.25;2.30;;;;;;;10.93;100.00;100674.44;676257;29;1854;-64
2023/08/08 01:26:53;;;;;;;5.60;2.40;;;;;;;10.94;100.00;100668.34;675238;29;1311;-64
2023/08/08 01:27:15;;;;;;;4.10;2.25;;;;;;;10.99;100.00;100678.75;675727;29;1291;-64
2023/08/08 01:27:36;;;;;;;5.93;2.30;;;;;;;10.99;100.00;100670.91;673238;29;1876;-64
2023/08/08 01:27:56;;;;;;;5.57;2.10;;;;;;;10.97;100.00;100668.31;672131;29;953;-64
2023/08/08 01:28:22;;;;;;;5.50;2.30;;;;;;;10.99;100.00;100676.13;672501;29;2625;-64
2023/08/08 01:28:44;;;;;;;4.22;2.03;;;;;;;10.99;100.00;100674.38;674348;29;4327;-64
2023/08/08 01:29:04;;;;;;;4.30;2.10;;;;;;;10.98;100.00;100674.38;676770;29;1120;-64
2023/08/08 01:29:25;;;;;;;3.58;2.10;;;;;;;10.99;100.00;100676.13;676180;29;1151;-64
2023/08/08 01:29:45;;;;;;;4.00;2.10;;;;;;;11.00;100.00;100667.41;678979;29;925;-64
2023/08/08 01:30:07;;;;;;;3.97;1.97;;;;;;;11.02;100.00;100670.88;677400;29;1491;-64
2023/08/08 01:30:27;;;;;;;4.18;1.92;;;;;;;11.02;100.00;100670.88;674829;29;1710;-64
2023/08/08 01:30:48;;;;;;;3.37;1.80;;;;;;;11.01;100.00;100670.03;676448;29;909;-64
2023/08/08 01:31:08;;;;;;;3.90;2.20;;;;;;;11.02;100.00;100670.88;675528;29;1253;-64
2023/08/08 01:31:29;;;;;;;3.60;2.10;;;;;;;11.04;100.00;100670.00;673778;29;2351;-64
2023/08/08 01:31:49;;;;;;;3.60;2.08;;;;;;;11.04;100.00;100671.75;676228;29;4504;-64
2023/08/08 01:32:10;;;;;;;4.30;2.17;;;;;;;11.03;100.00;100670.00;679303;29;901;-64
2023/08/08 01:32:31;;;;;;;3.95;2.28;;;;;;;11.02;100.00;100670.88;677614;29;2379;-64
2023/08/08 01:32:51;;;;;;;3.53;2.10;;;;;;;11.00;100.00;100673.50;679391;29;861;-64
2023/08/08 01:33:11;;;;;;;5.97;2.20;;;;;;;10.99;100.00;100670.91;679386;29;925;-64
2023/08/08 01:33:32;;;;;;;4.57;2.10;;;;;;;10.97;100.00;100668.31;674664;29;1712;-64
2023/08/08 01:33:52;;;;;;;4.60;2.27;;;;;;;10.95;100.00;100664.84;676432;29;1915;-64
2023/08/08 01:34:14;;;;;;;5.43;2.27;;;;;;;10.94;100.00;100672.69;673887;29;1146;-64
2023/08/08 01:34:35;;;;;;;4.38;2.00;;;;;;;10.97;100.00;100667.44;671911;29;4651;-64
2023/08/08 01:34:55;;;;;;;3.38;1.83;;;;;;;10.99;100.00;100668.28;676330;29;2375;-64
2023/08/08 01:35:16;;;;;;;4.68;2.08;;;;;;;10.99;100.00;100668.28;677155;29;848;-63
2023/08/08 01:35:44;;;;;;;4.07;2.10;;;;;;;11.00;100.00;100670.88;675847;29;1574;-64
2023/08/08 01:36:13;;;;;;;4.25;2.15;;;;;;;11.01;100.00;100669.16;678949;29;1015;-63
2023/08/08 01:36:59;;;;;;;5.35;2.42;;;;;;;11.00;100.00;100670.88;679840;29;1517;-64
2023/08/08 01:37:29;;;;;;;4.30;2.10;;;;;;;11.01;100.00;100674.41;681512;28;2347;-65
2023/08/08 01:37:54;;;;;;;4.00;2.30;;;;;;;11.01;100.00;100663.94;676686;29;4405;-64
2023/08/08 01:38:23;;;;;;;4.75;2.28;;;;;;;11.00;100.00;100675.28;677151;29;1072;-64
2023/08/08 01:38:48;;;;;;;4.80;2.13;;;;;;;11.01;100.00;100666.56;677409;29;945;-64
2023/08/08 01:39:14;;;;;;;5.35;2.38;;;;;;;10.97;100.00;100665.69;681191;29;900;-64
2023/08/08 01:39:35;;;;;;;4.90;2.05;;;;;;;10.98;100.00;100669.16;679014;29;1776;-64
2023/08/08 01:39:58;;;;;;;4.68;2.10;;;;;;;10.98;100.00;100666.53;678921;29;1412;-64
2023/08/08 01:40:20;;;;;;;4.47;2.17;;;;;;;10.97;100.00;100668.31;677657;29;2164;-63
2023/08/08 01:40:43;;;;;;;5.97;2.30;;;;;;;10.96;100.00;100666.56;675868;29;4546;-64
2023/08/08 01:41:05;;;;;;;5.63;2.22;;;;;;;10.96;100.00;100665.69;674694;29;1016;-64
2023/08/08 01:41:26;;;;;;;5.60;2.33;;;;;;;10.95;100.00;100658.72;672700;29;2705;-64
2023/08/08 01:41:48;;;;;;;5.20;2.22;;;;;;;10.97;100.00;100659.59;674927;29;921;-64
2023/08/08 01:42:10;;;;;;;4.13;2.20;;;;;;;11.02;100.00;100665.66;677678;29;1460;-63
2023/08/08 01:42:34;;;;;;;4.45;2.10;;;;;;;11.02;100.00;100661.31;678354;29;1561;-63
2023/08/08 01:42:55;;;;;;;4.13;2.05;;;;;;;11.03;100.00;100662.16;678390;29;1371;-64
2023/08/08 01:43:18;;;;;;;3.83;2.10;;;;;;;11.02;100.00;100660.41;677503;29;1088;-63
2023/08/08 01:43:39;;;;;;;5.28;2.33;;;;;;;11.00;100.00;100664.81;676317;29;4562;-63
2023/08/08 01:44:02;;;;;;;5.28;2.30;;;;;;;10.97;100.00;100656.97;675867;29;1460;-63